createdAt,value
2023-01-17T00:00:53.120Z,2.70
2023-01-17T00:03:19.930Z,2.70
2023-01-17T00:06:05.555Z,2.69
2023-01-17T00:08:55.425Z,2.65
2023-01-17T00:11:22.277Z,2.67
2023-01-17T00:13:49.166Z,2.73
2023-01-17T00:16:16.000Z,2.71
2023-01-17T00:19:02.827Z,2.79
2023-01-17T00:21:47.977Z,2.79
2023-01-17T00:24:33.506Z,2.82
2023-01-17T00:27:12.606Z,2.78
2023-01-17T00:29:39.402Z,2.79
2023-01-17T00:32:06.201Z,2.78
2023-01-17T00:34:33.061Z,2.80
2023-01-17T00:36:59.830Z,2.72
2023-01-17T00:39:26.590Z,2.74
2023-01-17T00:41:53.389Z,2.83
2023-01-17T00:44:38.793Z,2.78
2023-01-17T00:47:24.121Z,2.78
2023-01-17T00:50:09.757Z,2.77
2023-01-17T00:52:55.475Z,2.81
2023-01-17T00:55:41.106Z,2.73
2023-01-17T00:58:27.126Z,2.68
2023-01-17T01:01:12.978Z,2.67
2023-01-17T01:03:58.341Z,2.64
2023-01-17T01:06:44.112Z,2.62
2023-01-17T01:09:29.759Z,2.62
2023-01-17T01:12:15.433Z,2.60
2023-01-17T01:15:00.907Z,2.55
2023-01-17T01:17:46.502Z,2.63
2023-01-17T01:20:32.205Z,2.59
2023-01-17T01:23:22.114Z,2.53
2023-01-17T01:26:07.513Z,2.54
2023-01-17T01:28:53.199Z,2.47
2023-01-17T01:31:38.855Z,2.52
2023-01-17T01:34:05.872Z,2.40
2023-01-17T01:36:32.678Z,2.41
2023-01-17T01:38:59.888Z,2.44
2023-01-17T01:41:26.761Z,2.35
2023-01-17T01:43:54.754Z,2.42
2023-01-17T01:46:24.852Z,2.37
2023-01-17T01:48:54.667Z,2.41
2023-01-17T01:51:32.119Z,2.41
2023-01-17T01:54:01.970Z,2.30
2023-01-17T01:56:29.349Z,2.39
2023-01-17T01:58:57.710Z,2.29
2023-01-17T02:01:24.785Z,2.38
2023-01-17T02:03:52.089Z,2.24
2023-01-17T02:06:36.406Z,2.32
2023-01-17T02:09:05.614Z,2.32
2023-01-17T02:11:33.464Z,2.37
2023-01-17T02:14:00.381Z,2.47
2023-01-17T02:16:39.340Z,2.49
2023-01-17T02:19:21.348Z,2.39
2023-01-17T02:22:11.141Z,2.47
2023-01-17T02:24:56.751Z,2.31
2023-01-17T02:27:42.385Z,1.57
2023-01-17T02:30:13.244Z,2.34
2023-01-17T02:32:43.086Z,2.18
2023-01-17T02:35:35.718Z,2.26
2023-01-17T02:38:21.414Z,2.31
2023-01-17T02:40:51.547Z,2.30
2023-01-17T02:43:19.283Z,2.23
2023-01-17T02:45:46.312Z,2.08
2023-01-17T02:48:14.778Z,2.09
2023-01-17T02:51:02.095Z,2.10
2023-01-17T02:53:42.890Z,2.04
2023-01-17T02:56:17.769Z,2.06
2023-01-17T02:59:03.617Z,2.03
2023-01-17T03:01:37.691Z,2.01
2023-01-17T03:04:10.180Z,2.11
2023-01-17T03:06:41.829Z,2.06
2023-01-17T03:09:09.471Z,2.16
2023-01-17T03:11:36.440Z,2.14
2023-01-17T03:14:03.310Z,2.02
2023-01-17T03:16:31.611Z,2.09
2023-01-17T03:18:58.484Z,2.05
2023-01-17T03:21:25.392Z,2.11
2023-01-17T03:23:52.304Z,2.12
2023-01-17T03:26:19.132Z,2.13
2023-01-17T03:28:45.946Z,2.03
2023-01-17T03:31:16.669Z,2.05
2023-01-17T03:33:43.513Z,2.00
2023-01-17T03:36:11.850Z,2.00
2023-01-17T03:38:38.738Z,2.00
2023-01-17T03:41:06.041Z,1.97
2023-01-17T03:43:32.884Z,1.97
2023-01-17T03:46:04.275Z,1.93
2023-01-17T03:48:31.566Z,1.95
2023-01-17T03:50:58.440Z,1.87
2023-01-17T03:53:25.225Z,1.90
2023-01-17T03:55:52.023Z,1.90
2023-01-17T03:58:18.824Z,1.84
2023-01-17T04:00:45.656Z,1.98
2023-01-17T04:03:12.439Z,1.89
2023-01-17T04:05:39.288Z,1.96
2023-01-17T04:08:07.048Z,1.81
2023-01-17T04:10:33.929Z,1.63
2023-01-17T04:13:00.719Z,1.57
2023-01-17T04:15:27.640Z,1.63
2023-01-17T04:17:54.471Z,1.47
2023-01-17T04:20:29.470Z,1.51
2023-01-17T04:22:56.425Z,1.46
2023-01-17T04:25:23.343Z,1.54
2023-01-17T04:27:50.191Z,1.60
2023-01-17T04:30:17.004Z,1.65
2023-01-17T04:32:43.825Z,1.69
2023-01-17T04:35:10.679Z,1.64
2023-01-17T04:37:37.745Z,1.69
2023-01-17T04:40:05.382Z,1.66
2023-01-17T04:42:32.180Z,1.61
2023-01-17T04:44:58.969Z,1.64
2023-01-17T04:47:25.754Z,1.67
2023-01-17T04:49:53.586Z,1.74
2023-01-17T04:52:20.593Z,1.80
2023-01-17T04:54:49.471Z,1.82
2023-01-17T04:57:19.387Z,1.79
2023-01-17T04:59:46.865Z,1.73
2023-01-17T05:02:13.791Z,1.76
2023-01-17T05:04:40.647Z,1.63
2023-01-17T05:07:07.890Z,1.67
2023-01-17T05:09:34.834Z,1.74
2023-01-17T05:12:01.620Z,1.71
2023-01-17T05:14:28.696Z,1.87
2023-01-17T05:16:58.450Z,1.72
2023-01-17T05:19:26.521Z,1.87
2023-01-17T05:21:53.395Z,1.75
2023-01-17T05:24:20.404Z,1.58
2023-01-17T05:26:54.683Z,1.56
2023-01-17T05:29:21.915Z,1.65
2023-01-17T05:31:48.744Z,1.59
2023-01-17T05:34:15.528Z,1.56
2023-01-17T05:36:42.450Z,1.59
2023-01-17T05:39:09.475Z,1.54
2023-01-17T05:41:36.287Z,1.61
2023-01-17T05:44:03.164Z,1.63
2023-01-17T05:46:30.805Z,1.62
2023-01-17T05:48:57.611Z,1.59
2023-01-17T05:51:24.444Z,1.65
2023-01-17T05:53:51.242Z,1.72
2023-01-17T05:56:18.094Z,1.70
2023-01-17T05:58:44.943Z,1.60
2023-01-17T06:01:11.888Z,1.52
2023-01-17T06:03:38.782Z,1.52
2023-01-17T06:06:05.707Z,1.57
2023-01-17T06:08:32.499Z,1.71
2023-01-17T06:10:59.517Z,1.62
2023-01-17T06:13:26.409Z,1.61
2023-01-17T06:15:53.400Z,1.62
2023-01-17T06:18:20.245Z,1.50
2023-01-17T06:20:52.017Z,1.54
2023-01-17T06:23:18.953Z,1.64
2023-01-17T06:25:46.532Z,1.62
2023-01-17T06:28:14.963Z,1.45
2023-01-17T06:30:41.966Z,1.43
2023-01-17T06:33:08.754Z,1.49
2023-01-17T06:35:38.143Z,1.36
2023-01-17T06:38:04.988Z,1.52
2023-01-17T06:40:32.033Z,1.53
2023-01-17T06:43:05.457Z,1.63
2023-01-17T06:45:33.586Z,1.61
2023-01-17T06:48:00.724Z,1.51
2023-01-17T06:50:27.584Z,1.47
2023-01-17T06:52:59.478Z,1.62
2023-01-17T06:55:28.786Z,1.55
2023-01-17T06:57:56.621Z,1.53
2023-01-17T07:00:23.751Z,1.40
2023-01-17T07:02:51.255Z,1.34
2023-01-17T07:05:18.356Z,1.40
2023-01-17T07:07:45.647Z,1.29
2023-01-17T07:10:13.226Z,1.47
2023-01-17T07:12:40.271Z,1.38
2023-01-17T07:15:07.732Z,1.43
2023-01-17T07:17:34.883Z,1.31
2023-01-17T07:20:01.799Z,1.34
2023-01-17T07:22:28.636Z,1.40
2023-01-17T07:24:58.528Z,1.40
2023-01-17T07:27:27.588Z,1.36
2023-01-17T07:29:54.514Z,1.40
2023-01-17T07:32:21.527Z,1.45
2023-01-17T07:34:48.339Z,1.52
2023-01-17T07:37:15.514Z,1.57
2023-01-17T07:39:42.449Z,1.61
2023-01-17T07:42:09.356Z,1.80
2023-01-17T07:44:36.186Z,1.59
2023-01-17T07:47:04.179Z,1.68
2023-01-17T07:49:31.050Z,1.77
2023-01-17T07:51:57.899Z,1.67
2023-01-17T07:54:24.737Z,1.80
2023-01-17T07:56:51.523Z,1.76
2023-01-17T07:59:18.324Z,1.79
2023-01-17T08:01:45.506Z,1.74
2023-01-17T08:04:14.031Z,1.81
2023-01-17T08:06:43.245Z,1.96
2023-01-17T08:09:10.045Z,2.06
2023-01-17T08:11:37.106Z,1.87
2023-01-17T08:14:03.895Z,1.94
2023-01-17T08:16:30.773Z,1.84
2023-01-17T08:18:57.607Z,1.95
2023-01-17T08:21:24.629Z,1.88
2023-01-17T08:23:52.070Z,1.85
2023-01-17T08:26:23.124Z,1.84
2023-01-17T08:28:55.027Z,1.82
2023-01-17T08:31:21.964Z,1.90
2023-01-17T08:33:48.926Z,1.87
2023-01-17T08:36:15.859Z,1.89
2023-01-17T08:38:42.671Z,1.98
2023-01-17T08:41:09.528Z,1.99
2023-01-17T08:43:36.364Z,2.02
2023-01-17T08:46:03.249Z,2.01
2023-01-17T08:48:30.099Z,2.13
2023-01-17T08:50:59.970Z,2.20
2023-01-17T08:53:26.788Z,2.35
2023-01-17T08:56:00.636Z,2.36
2023-01-17T08:58:30.445Z,2.22
2023-01-17T09:01:05.611Z,2.10
2023-01-17T09:03:33.184Z,2.09
2023-01-17T09:06:10.625Z,1.82
2023-01-17T09:08:37.976Z,1.99
2023-01-17T09:11:05.544Z,2.12
2023-01-17T09:13:32.368Z,2.24
2023-01-17T09:15:59.601Z,2.12
2023-01-17T09:18:26.985Z,2.11
2023-01-17T09:20:55.083Z,2.21
2023-01-17T09:23:22.434Z,2.28
2023-01-17T09:25:55.412Z,2.49
2023-01-17T09:28:22.760Z,2.29
2023-01-17T09:30:49.643Z,2.29
2023-01-17T09:33:17.570Z,2.18
2023-01-17T09:35:44.780Z,2.18
2023-01-17T09:38:11.968Z,1.93
2023-01-17T09:40:43.719Z,2.18
2023-01-17T09:43:23.259Z,2.56
2023-01-17T09:45:50.240Z,2.79
2023-01-17T09:48:21.899Z,3.06
2023-01-17T09:50:59.795Z,3.33
2023-01-17T09:53:29.063Z,3.52
2023-01-17T09:56:02.874Z,3.52
2023-01-17T09:58:29.638Z,3.31
2023-01-17T10:00:59.677Z,3.24
2023-01-17T10:03:45.434Z,3.15
2023-01-17T10:06:12.243Z,2.96
2023-01-17T10:08:39.015Z,3.04
2023-01-17T10:11:05.802Z,3.29
2023-01-17T10:13:46.163Z,3.23
2023-01-17T10:16:28.140Z,3.06
2023-01-17T10:19:08.779Z,3.30
2023-01-17T10:21:38.717Z,3.44
2023-01-17T10:24:16.105Z,3.49
2023-01-17T10:26:48.680Z,3.72
2023-01-17T10:29:21.059Z,3.91
2023-01-17T10:31:51.109Z,3.66
2023-01-17T10:34:19.550Z,3.85
2023-01-17T10:36:50.021Z,3.54
2023-01-17T10:39:24.004Z,3.42
2023-01-17T10:41:55.232Z,3.41
2023-01-17T10:44:25.036Z,3.03
2023-01-17T10:46:55.137Z,3.18
2023-01-17T10:49:24.225Z,3.22
2023-01-17T10:52:00.352Z,3.17
2023-01-17T10:54:38.077Z,2.93
2023-01-17T10:57:05.129Z,3.09
2023-01-17T10:59:33.506Z,3.25
2023-01-17T11:02:06.603Z,3.48
2023-01-17T11:04:36.561Z,3.55
2023-01-17T11:07:16.679Z,3.61
2023-01-17T11:09:47.981Z,3.81
2023-01-17T11:12:24.085Z,4.06
2023-01-17T11:14:59.034Z,4.36
2023-01-17T11:17:27.472Z,4.70
2023-01-17T11:19:54.525Z,4.15
2023-01-17T11:22:22.089Z,4.80
2023-01-17T11:24:54.402Z,4.81
2023-01-17T11:27:28.777Z,4.65
2023-01-17T11:30:03.418Z,4.84
2023-01-17T11:32:32.101Z,4.75
2023-01-17T11:35:20.207Z,5.00
2023-01-17T11:37:48.917Z,4.96
2023-01-17T11:40:20.511Z,4.85
2023-01-17T11:42:47.331Z,4.99
2023-01-17T11:45:34.471Z,4.95
2023-01-17T11:48:07.439Z,4.86
2023-01-17T11:50:43.794Z,4.87
2023-01-17T11:53:13.597Z,4.67
2023-01-17T11:55:40.674Z,4.79
2023-01-17T11:58:13.108Z,5.15
2023-01-17T12:00:45.960Z,4.92
2023-01-17T12:03:16.035Z,4.89
2023-01-17T12:05:42.808Z,5.12
2023-01-17T12:08:16.565Z,5.26
2023-01-17T12:10:43.387Z,5.19
2023-01-17T12:13:37.929Z,5.48
2023-01-17T12:16:32.645Z,5.73
2023-01-17T12:19:11.699Z,5.41
2023-01-17T12:21:38.587Z,5.54
2023-01-17T12:24:05.376Z,5.34
2023-01-17T12:26:36.069Z,5.49
2023-01-17T12:29:05.705Z,5.58
2023-01-17T12:31:35.027Z,5.82
2023-01-17T12:34:07.155Z,5.92
2023-01-17T12:36:42.109Z,5.94
2023-01-17T12:39:11.756Z,5.96
2023-01-17T12:41:47.998Z,6.12
2023-01-17T12:44:16.610Z,6.16
2023-01-17T12:46:49.295Z,5.98
2023-01-17T12:49:22.291Z,5.90
2023-01-17T12:51:56.018Z,5.82
2023-01-17T12:54:33.333Z,5.69
2023-01-17T12:57:06.602Z,4.17
2023-01-17T12:59:48.025Z,5.41
2023-01-17T13:02:26.123Z,5.19
2023-01-17T13:05:05.162Z,4.96
2023-01-17T13:07:37.425Z,4.97
2023-01-17T13:10:25.262Z,5.57
2023-01-17T13:12:54.382Z,5.85
2023-01-17T13:15:24.910Z,5.81
2023-01-17T13:17:55.893Z,5.65
2023-01-17T13:20:41.302Z,5.75
2023-01-17T13:23:12.764Z,5.73
2023-01-17T13:25:44.570Z,5.78
2023-01-17T13:28:30.227Z,5.71
2023-01-17T13:31:18.496Z,5.96
2023-01-17T13:33:57.404Z,6.11
2023-01-17T13:36:32.509Z,6.04
2023-01-17T13:39:19.980Z,5.92
2023-01-17T13:41:52.574Z,5.89
2023-01-17T13:44:22.775Z,5.97
2023-01-17T13:46:52.613Z,5.87
2023-01-17T13:49:33.174Z,5.77
2023-01-17T13:52:23.432Z,5.70
2023-01-17T13:54:54.502Z,5.74
2023-01-17T13:57:29.921Z,5.90
2023-01-17T13:59:58.154Z,5.91
2023-01-17T14:02:36.061Z,5.50
2023-01-17T14:05:10.375Z,5.50
2023-01-17T14:07:46.398Z,5.35
2023-01-17T14:10:26.985Z,5.45
2023-01-17T14:12:54.380Z,5.36
2023-01-17T14:15:22.540Z,5.38
2023-01-17T14:17:59.636Z,5.24
2023-01-17T14:20:26.417Z,5.05
2023-01-17T14:22:55.896Z,4.91
2023-01-17T14:25:24.583Z,4.58
2023-01-17T14:27:52.607Z,4.47
2023-01-17T14:30:27.189Z,4.30
2023-01-17T14:33:04.670Z,4.22
2023-01-17T14:35:33.351Z,4.18
2023-01-17T14:38:05.472Z,3.83
2023-01-17T14:40:33.324Z,3.70
2023-01-17T14:43:01.450Z,3.50
2023-01-17T14:45:29.634Z,3.43
2023-01-17T14:47:57.759Z,3.30
2023-01-17T14:50:27.000Z,3.28
2023-01-17T14:53:15.547Z,3.25
2023-01-17T14:55:49.551Z,3.13
2023-01-17T14:58:17.751Z,3.10
2023-01-17T15:00:44.919Z,3.13
2023-01-17T15:03:13.160Z,2.94
2023-01-17T15:05:41.686Z,2.85
2023-01-17T15:08:15.242Z,2.82
2023-01-17T15:10:51.550Z,2.75
2023-01-17T15:13:27.749Z,2.68
2023-01-17T15:16:04.005Z,2.58
2023-01-17T15:18:37.607Z,2.53
2023-01-17T15:21:06.295Z,2.48
2023-01-17T15:23:36.204Z,2.39
2023-01-17T15:26:03.730Z,2.31
2023-01-17T15:28:32.141Z,2.26
2023-01-17T15:31:10.027Z,2.20
2023-01-17T15:33:42.416Z,2.07
2023-01-17T15:36:12.686Z,2.04
2023-01-17T15:38:47.393Z,1.89
2023-01-17T15:41:15.543Z,1.79
2023-01-17T15:43:44.038Z,1.72
2023-01-17T15:46:36.898Z,1.66
2023-01-17T15:49:17.616Z,1.58
2023-01-17T15:51:55.537Z,1.48
2023-01-17T15:54:31.197Z,1.42
2023-01-17T15:57:02.574Z,1.37
2023-01-17T15:59:46.370Z,1.31
2023-01-17T16:02:23.491Z,1.29
2023-01-17T16:04:50.311Z,1.29
2023-01-17T16:07:19.637Z,1.22
2023-01-17T16:09:46.759Z,1.17
2023-01-17T16:12:13.725Z,1.20
2023-01-17T16:15:02.518Z,1.07
2023-01-17T16:17:28.507Z,1.02
2023-01-17T16:19:55.319Z,0.98
2023-01-17T16:22:22.202Z,0.92
2023-01-17T16:24:49.020Z,0.91
2023-01-17T16:27:15.823Z,0.86
2023-01-17T16:29:42.639Z,0.82
2023-01-17T16:32:09.489Z,0.75
2023-01-17T16:34:36.324Z,0.73
2023-01-17T16:37:06.182Z,0.67
2023-01-17T16:39:33.017Z,0.61
2023-01-17T16:42:02.256Z,0.53
2023-01-17T16:44:29.955Z,0.51
2023-01-17T16:47:01.114Z,0.48
2023-01-17T16:49:30.814Z,0.43
2023-01-17T16:51:58.138Z,0.37
2023-01-17T16:54:25.239Z,0.35
2023-01-17T16:56:52.154Z,0.38
2023-01-17T16:59:19.095Z,0.30
2023-01-17T17:01:47.056Z,0.38
2023-01-17T17:04:14.005Z,0.32
2023-01-17T17:06:41.347Z,0.25
2023-01-17T17:09:08.261Z,0.21
2023-01-17T17:11:35.080Z,0.23
2023-01-17T17:14:02.283Z,0.18
2023-01-17T17:16:30.159Z,0.14
2023-01-17T17:18:58.041Z,0.10
2023-01-17T17:21:25.353Z,0.07
2023-01-17T17:23:56.883Z,0.02
2023-01-17T17:26:28.837Z,-0.02
2023-01-17T17:29:03.970Z,0.01
2023-01-17T17:31:31.005Z,-0.03
2023-01-17T17:34:01.756Z,-0.06
2023-01-17T17:36:29.007Z,-0.17
2023-01-17T17:38:56.349Z,-0.21
2023-01-17T17:41:24.344Z,-0.22
2023-01-17T17:43:52.067Z,-0.26
2023-01-17T17:46:19.453Z,-0.31
2023-01-17T17:48:46.571Z,-0.32
2023-01-17T17:51:27.087Z,-0.29
2023-01-17T17:54:00.751Z,-0.29
2023-01-17T17:56:28.387Z,-0.29
2023-01-17T17:58:55.882Z,-0.32
2023-01-17T18:01:24.119Z,-0.34
2023-01-17T18:03:55.947Z,-0.40
2023-01-17T18:06:23.114Z,-1.21
2023-01-17T18:08:51.857Z,-0.41
2023-01-17T18:11:23.134Z,-0.46
2023-01-17T18:13:50.943Z,-0.48
2023-01-17T18:16:20.765Z,-0.49
2023-01-17T18:18:48.767Z,-0.48
2023-01-17T18:21:17.021Z,-0.51
2023-01-17T18:23:45.060Z,-0.54
2023-01-17T18:26:19.464Z,-0.60
2023-01-17T18:28:46.374Z,-0.63
2023-01-17T18:31:13.204Z,-0.61
2023-01-17T18:33:40.057Z,-0.62
2023-01-17T18:36:07.956Z,-0.61
2023-01-17T18:38:38.495Z,-0.66
2023-01-17T18:41:07.220Z,-0.69
2023-01-17T18:43:34.179Z,-0.67
2023-01-17T18:46:01.226Z,-0.68
2023-01-17T18:48:28.084Z,-0.73
2023-01-17T18:51:02.261Z,-0.77
2023-01-17T18:53:30.717Z,-0.83
2023-01-17T18:55:58.821Z,-0.83
2023-01-17T18:58:26.520Z,-0.81
2023-01-17T19:01:09.576Z,-0.82
2023-01-17T19:03:36.497Z,-0.89
2023-01-17T19:06:04.657Z,-0.89
2023-01-17T19:08:32.803Z,-0.92
2023-01-17T19:11:00.200Z,-0.99
2023-01-17T19:13:27.197Z,-0.93
2023-01-17T19:15:58.549Z,-0.90
2023-01-17T19:18:25.359Z,-0.89
2023-01-17T19:20:52.294Z,-0.93
2023-01-17T19:23:19.174Z,-0.94
2023-01-17T19:25:46.479Z,-0.96
2023-01-17T19:28:13.269Z,-1.00
2023-01-17T19:30:40.688Z,-1.03
2023-01-17T19:33:07.507Z,-1.07
2023-01-17T19:35:37.329Z,-1.06
2023-01-17T19:38:04.282Z,-1.07
2023-01-17T19:40:31.325Z,-1.06
2023-01-17T19:42:59.233Z,-1.07
2023-01-17T19:45:26.116Z,-1.12
2023-01-17T19:47:53.303Z,-1.12
2023-01-17T19:50:20.210Z,-1.12
2023-01-17T19:52:46.993Z,-1.14
2023-01-17T19:55:13.790Z,-1.18
2023-01-17T19:57:40.642Z,-1.13
2023-01-17T20:00:12.941Z,-1.13
2023-01-17T20:02:40.005Z,-1.12
2023-01-17T20:05:07.049Z,-1.14
2023-01-17T20:07:34.606Z,-1.16
2023-01-17T20:10:01.402Z,-1.21
2023-01-17T20:12:28.201Z,-1.21
2023-01-17T20:14:55.133Z,-1.26
2023-01-17T20:17:21.946Z,-1.30
2023-01-17T20:19:48.757Z,-1.34
2023-01-17T20:22:15.635Z,-1.41
2023-01-17T20:24:42.456Z,-1.42
2023-01-17T20:27:09.330Z,-1.43
2023-01-17T20:29:36.179Z,-1.44
2023-01-17T20:32:03.136Z,-1.48
2023-01-17T20:34:31.425Z,-1.50
2023-01-17T20:36:59.290Z,-1.48
2023-01-17T20:39:26.303Z,-1.55
2023-01-17T20:41:53.148Z,-1.53
2023-01-17T20:44:20.075Z,-1.57
2023-01-17T20:46:48.096Z,-1.56
2023-01-17T20:49:16.471Z,-1.55
2023-01-17T20:51:44.200Z,-1.59
2023-01-17T20:54:15.348Z,-1.57
2023-01-17T20:56:42.832Z,-1.58
2023-01-17T20:59:14.377Z,-1.62
2023-01-17T21:01:41.768Z,-1.67
2023-01-17T21:04:09.997Z,-1.65
2023-01-17T21:06:41.098Z,-1.67
2023-01-17T21:09:10.528Z,-1.67
2023-01-17T21:11:37.605Z,-1.74
2023-01-17T21:14:05.934Z,-1.74
2023-01-17T21:16:37.232Z,-1.71
2023-01-17T21:19:04.302Z,-1.67
2023-01-17T21:21:31.393Z,-1.69
2023-01-17T21:23:59.104Z,-1.74
2023-01-17T21:26:26.951Z,-1.74
2023-01-17T21:28:53.780Z,-1.73
2023-01-17T21:31:26.084Z,-1.82
2023-01-17T21:33:54.127Z,-1.78
2023-01-17T21:36:22.998Z,-1.80
2023-01-17T21:38:52.113Z,-1.86
2023-01-17T21:41:20.515Z,-1.89
2023-01-17T21:43:47.842Z,-1.96
2023-01-17T21:46:14.743Z,-2.02
2023-01-17T21:48:41.610Z,-1.98
2023-01-17T21:51:08.671Z,-1.92
2023-01-17T21:53:36.639Z,-1.98
2023-01-17T21:56:23.480Z,-1.93
2023-01-17T21:58:53.980Z,-1.97
2023-01-17T22:01:22.389Z,-1.98
2023-01-17T22:03:49.356Z,-1.96
2023-01-17T22:06:16.558Z,-2.02
2023-01-17T22:08:43.558Z,-2.02
2023-01-17T22:11:11.848Z,-2.10
2023-01-17T22:13:39.441Z,-2.13
2023-01-17T22:16:07.598Z,-2.14
2023-01-17T22:18:36.975Z,-2.14
2023-01-17T22:21:22.909Z,-2.12
2023-01-17T22:23:52.031Z,-2.21
2023-01-17T22:26:19.655Z,-2.20
2023-01-17T22:28:46.777Z,-2.15
2023-01-17T22:31:16.240Z,-2.16
2023-01-17T22:33:44.269Z,-2.17
2023-01-17T22:36:13.701Z,-2.19
2023-01-17T22:38:41.267Z,-2.19
2023-01-17T22:41:10.005Z,-2.19
2023-01-17T22:43:37.837Z,-2.20
2023-01-17T22:46:09.749Z,-2.22
2023-01-17T22:48:37.094Z,-2.28
2023-01-17T22:51:04.540Z,-2.30
2023-01-17T22:53:31.384Z,-2.31
2023-01-17T22:56:02.963Z,-2.30
2023-01-17T22:58:30.230Z,-2.29
2023-01-17T23:01:04.042Z,-2.28
2023-01-17T23:03:31.143Z,-2.38
2023-01-17T23:06:07.224Z,-2.38
2023-01-17T23:08:34.014Z,-2.45
2023-01-17T23:11:19.622Z,-2.49
2023-01-17T23:13:47.644Z,-2.43
2023-01-17T23:16:33.249Z,-2.43
2023-01-17T23:19:18.863Z,-2.44
2023-01-17T23:22:04.611Z,-2.38
2023-01-17T23:24:31.393Z,-2.43
2023-01-17T23:27:16.841Z,-2.46
2023-01-17T23:29:43.626Z,-2.41
2023-01-17T23:32:10.467Z,-2.44
2023-01-17T23:34:37.262Z,-2.44
2023-01-17T23:37:04.101Z,-2.43
2023-01-17T23:39:30.950Z,-2.44
2023-01-17T23:42:16.318Z,-2.42
2023-01-17T23:44:43.157Z,-2.50
2023-01-17T23:47:09.981Z,-2.37
2023-01-17T23:49:36.765Z,-2.43
2023-01-17T23:52:05.164Z,-2.50
2023-01-17T23:54:32.032Z,-2.42
2023-01-17T23:56:58.890Z,-2.44
2023-01-17T23:59:25.671Z,-2.50
